createdAt,value
2022-12-29T00:00:23.803Z,2.47
2022-12-29T00:02:53.892Z,3.20
2022-12-29T00:05:22.353Z,1.75
2022-12-29T00:07:50.679Z,1.77
2022-12-29T00:10:20.680Z,1.30
2022-12-29T00:13:06.509Z,1.75
2022-12-29T00:15:41.078Z,1.75
2022-12-29T00:18:09.941Z,2.55
2022-12-29T00:20:56.379Z,2.97
2022-12-29T00:23:56.826Z,1.38
2022-12-29T00:26:44.138Z,1.15
2022-12-29T00:29:49.331Z,1.85
2022-12-29T00:32:35.382Z,3.10
2022-12-29T00:35:11.620Z,1.90
2022-12-29T00:38:00.967Z,1.27
2022-12-29T00:40:51.253Z,2.67
2022-12-29T00:43:38.367Z,1.35
2022-12-29T00:46:12.850Z,1.75
2022-12-29T00:49:02.183Z,2.92
2022-12-29T00:51:30.447Z,3.17
2022-12-29T00:54:01.073Z,1.45
2022-12-29T00:56:31.614Z,1.25
2022-12-29T00:59:03.885Z,1.40
2022-12-29T01:01:32.703Z,2.45
2022-12-29T01:04:05.717Z,1.17
2022-12-29T01:06:33.960Z,2.42
2022-12-29T01:09:29.552Z,0.90
2022-12-29T01:11:58.075Z,2.30
2022-12-29T01:14:27.694Z,1.92
2022-12-29T01:16:56.504Z,1.05
2022-12-29T01:19:24.895Z,0.85
2022-12-29T01:21:57.903Z,2.35
2022-12-29T01:24:27.004Z,1.73
2022-12-29T01:26:57.742Z,3.78
2022-12-29T01:29:27.545Z,1.75
2022-12-29T01:31:55.771Z,0.73
2022-12-29T01:34:24.777Z,0.98
2022-12-29T01:36:52.985Z,1.65
2022-12-29T01:39:23.653Z,2.15
2022-12-29T01:41:54.205Z,1.80
2022-12-29T01:44:41.141Z,1.20
2022-12-29T01:47:10.825Z,1.02
2022-12-29T01:49:42.272Z,1.92
2022-12-29T01:52:21.880Z,1.63
2022-12-29T01:54:51.807Z,1.88
2022-12-29T01:57:21.865Z,1.40
2022-12-29T01:59:52.540Z,1.40
2022-12-29T02:02:24.745Z,0.98
2022-12-29T02:04:53.729Z,0.73
2022-12-29T02:07:22.710Z,2.80
2022-12-29T02:09:52.556Z,1.95
2022-12-29T02:12:22.011Z,1.48
2022-12-29T02:14:54.874Z,3.40
2022-12-29T02:17:31.678Z,1.20
2022-12-29T02:20:16.341Z,1.25
2022-12-29T02:22:52.495Z,2.03
2022-12-29T02:25:35.512Z,1.48
2022-12-29T02:28:12.143Z,1.08
2022-12-29T02:30:48.671Z,2.00
2022-12-29T02:33:23.586Z,2.60
2022-12-29T02:36:05.838Z,2.60
2022-12-29T02:38:40.829Z,4.90
2022-12-29T02:41:11.051Z,0.47
2022-12-29T02:43:46.228Z,4.18
2022-12-29T02:46:21.321Z,2.50
2022-12-29T02:48:52.621Z,2.45
2022-12-29T02:51:29.641Z,0.50
2022-12-29T02:54:20.202Z,2.42
2022-12-29T02:56:50.424Z,2.60
2022-12-29T02:59:19.531Z,2.45
2022-12-29T03:02:09.668Z,3.17
2022-12-29T03:04:42.207Z,4.25
2022-12-29T03:07:15.662Z,3.05
2022-12-29T03:09:46.198Z,3.63
2022-12-29T03:12:17.843Z,1.63
2022-12-29T03:15:09.023Z,4.15
2022-12-29T03:17:43.461Z,3.38
2022-12-29T03:20:16.960Z,2.33
2022-12-29T03:22:52.799Z,2.47
2022-12-29T03:25:26.349Z,2.60
2022-12-29T03:27:57.306Z,3.10
2022-12-29T03:30:26.500Z,5.75
2022-12-29T03:32:58.283Z,3.42
2022-12-29T03:35:32.408Z,1.55
2022-12-29T03:38:02.026Z,4.32
2022-12-29T03:40:31.496Z,5.75
2022-12-29T03:43:00.468Z,2.20
2022-12-29T03:45:31.908Z,2.85
2022-12-29T03:48:01.752Z,0.40
2022-12-29T03:50:31.023Z,4.10
2022-12-29T03:53:02.253Z,2.33
2022-12-29T03:55:30.675Z,5.20
2022-12-29T03:57:59.127Z,4.70
2022-12-29T04:00:51.814Z,7.13
2022-12-29T04:03:22.060Z,3.47
2022-12-29T04:05:50.876Z,5.00
2022-12-29T04:08:19.800Z,2.80
2022-12-29T04:10:50.990Z,7.22
2022-12-29T04:13:23.702Z,3.13
2022-12-29T04:15:53.952Z,7.43
2022-12-29T04:18:26.004Z,3.10
2022-12-29T04:21:03.941Z,2.88
2022-12-29T04:23:35.213Z,3.60
2022-12-29T04:26:10.086Z,4.25
2022-12-29T04:28:58.788Z,8.85
2022-12-29T04:31:44.036Z,8.73
2022-12-29T04:34:14.374Z,9.40
2022-12-29T04:36:45.200Z,7.15
2022-12-29T04:39:14.705Z,4.10
2022-12-29T04:41:43.744Z,6.28
2022-12-29T04:44:22.095Z,3.42
2022-12-29T04:47:13.890Z,4.25
2022-12-29T04:49:55.139Z,7.60
2022-12-29T04:52:35.343Z,7.03
2022-12-29T04:55:04.828Z,3.30
2022-12-29T04:57:33.216Z,8.73
2022-12-29T05:00:04.968Z,6.78
2022-12-29T05:02:33.465Z,9.00
2022-12-29T05:05:03.805Z,6.30
2022-12-29T05:07:34.289Z,3.65
2022-12-29T05:10:07.228Z,8.90
2022-12-29T05:12:36.766Z,3.70
2022-12-29T05:15:08.131Z,5.38
2022-12-29T05:17:36.824Z,7.18
2022-12-29T05:20:13.957Z,5.25
2022-12-29T05:22:45.935Z,5.28
2022-12-29T05:25:14.268Z,6.30
2022-12-29T05:27:56.296Z,4.05
2022-12-29T05:30:44.018Z,10.93
2022-12-29T05:33:13.212Z,10.25
2022-12-29T05:35:43.551Z,6.97
2022-12-29T05:38:11.961Z,3.05
2022-12-29T05:40:40.481Z,8.63
2022-12-29T05:43:23.039Z,6.60
2022-12-29T05:46:12.216Z,7.50
2022-12-29T05:49:07.226Z,5.53
2022-12-29T05:51:57.914Z,7.75
2022-12-29T05:54:26.470Z,6.25
2022-12-29T05:56:54.890Z,4.45
2022-12-29T05:59:23.608Z,9.65
2022-12-29T06:01:53.354Z,7.40
2022-12-29T06:04:21.821Z,6.22
2022-12-29T06:06:51.889Z,6.47
2022-12-29T06:09:50.145Z,10.07
2022-12-29T06:12:18.932Z,8.52
2022-12-29T06:14:50.144Z,7.68
2022-12-29T06:17:18.857Z,9.07
2022-12-29T06:19:49.926Z,7.13
2022-12-29T06:22:19.900Z,9.20
2022-12-29T06:24:49.661Z,7.70
2022-12-29T06:27:18.028Z,8.98
2022-12-29T06:29:47.015Z,6.10
2022-12-29T06:32:15.421Z,7.15
2022-12-29T06:34:49.680Z,8.38
2022-12-29T06:37:25.097Z,5.38
2022-12-29T06:39:56.984Z,6.72
2022-12-29T06:42:29.858Z,10.95
2022-12-29T06:45:15.227Z,4.63
2022-12-29T06:47:45.870Z,11.70
2022-12-29T06:50:16.625Z,8.45
2022-12-29T06:52:48.201Z,8.10
2022-12-29T06:55:18.068Z,7.20
2022-12-29T06:57:46.481Z,3.70
2022-12-29T07:00:20.871Z,7.80
2022-12-29T07:02:51.169Z,5.22
2022-12-29T07:05:19.887Z,6.15
2022-12-29T07:07:48.080Z,6.32
2022-12-29T07:10:18.034Z,7.90
2022-12-29T07:12:46.286Z,3.30
2022-12-29T07:15:14.654Z,6.72
2022-12-29T07:17:45.493Z,8.38
2022-12-29T07:20:13.738Z,7.10
2022-12-29T07:22:42.021Z,7.97
2022-12-29T07:25:10.836Z,5.07
2022-12-29T07:27:44.728Z,7.97
2022-12-29T07:30:13.582Z,5.25
2022-12-29T07:32:44.185Z,7.47
2022-12-29T07:35:12.432Z,7.13
2022-12-29T07:37:41.028Z,6.53
2022-12-29T07:40:10.285Z,5.80
2022-12-29T07:42:38.508Z,5.22
2022-12-29T07:45:11.999Z,8.93
2022-12-29T07:48:03.294Z,4.43
2022-12-29T07:50:31.665Z,10.98
2022-12-29T07:52:59.981Z,10.98
2022-12-29T07:55:28.275Z,6.72
2022-12-29T07:57:58.788Z,9.73
2022-12-29T08:00:28.550Z,7.82
2022-12-29T08:02:59.001Z,9.23
2022-12-29T08:05:27.408Z,9.52
2022-12-29T08:07:55.681Z,9.18
2022-12-29T08:10:23.954Z,11.57
2022-12-29T08:12:52.328Z,7.18
2022-12-29T08:15:22.555Z,13.27
2022-12-29T08:17:58.556Z,11.02
2022-12-29T08:20:31.708Z,6.40
2022-12-29T08:23:01.652Z,9.63
2022-12-29T08:25:30.110Z,6.20
2022-12-29T08:27:58.325Z,15.35
2022-12-29T08:30:26.535Z,6.68
2022-12-29T08:32:56.250Z,10.23
2022-12-29T08:35:24.486Z,8.52
2022-12-29T08:37:55.177Z,8.00
2022-12-29T08:40:28.268Z,5.53
2022-12-29T08:42:58.935Z,8.55
2022-12-29T08:45:27.323Z,8.35
2022-12-29T08:47:56.905Z,5.93
2022-12-29T08:50:27.540Z,11.00
2022-12-29T08:52:56.109Z,6.25
2022-12-29T08:55:26.424Z,6.25
2022-12-29T08:57:57.713Z,11.23
2022-12-29T09:00:28.964Z,3.55
2022-12-29T09:03:00.208Z,8.80
2022-12-29T09:05:28.642Z,7.47
2022-12-29T09:07:57.023Z,4.78
2022-12-29T09:10:25.417Z,4.88
2022-12-29T09:13:00.618Z,6.95
2022-12-29T09:15:31.343Z,7.53
2022-12-29T09:18:10.263Z,8.52
2022-12-29T09:20:41.874Z,15.05
2022-12-29T09:23:10.237Z,6.18
2022-12-29T09:25:38.563Z,8.18
2022-12-29T09:28:08.650Z,9.63
2022-12-29T09:30:36.953Z,4.43
2022-12-29T09:33:09.112Z,11.35
2022-12-29T09:35:37.513Z,9.73
2022-12-29T09:38:05.906Z,3.58
2022-12-29T09:40:34.828Z,7.82
2022-12-29T09:43:07.803Z,3.80
2022-12-29T09:45:39.358Z,6.78
2022-12-29T09:48:14.397Z,6.28
2022-12-29T09:50:43.374Z,6.50
2022-12-29T09:53:14.896Z,4.05
2022-12-29T09:55:45.688Z,7.65
2022-12-29T09:58:16.478Z,2.67
2022-12-29T10:00:55.091Z,6.32
2022-12-29T10:03:26.986Z,6.03
2022-12-29T10:06:01.070Z,6.38
2022-12-29T10:08:35.171Z,3.00
2022-12-29T10:11:12.249Z,4.93
2022-12-29T10:13:47.612Z,6.85
2022-12-29T10:16:24.902Z,7.30
2022-12-29T10:19:19.136Z,8.60
2022-12-29T10:21:54.899Z,8.23
2022-12-29T10:24:26.834Z,9.05
2022-12-29T10:26:55.068Z,9.40
2022-12-29T10:29:26.996Z,13.30
2022-12-29T10:31:58.863Z,10.48
2022-12-29T10:34:34.374Z,16.20
2022-12-29T10:37:05.335Z,12.50
2022-12-29T10:39:36.135Z,8.98
2022-12-29T10:42:07.472Z,13.98
2022-12-29T10:44:36.161Z,5.80
2022-12-29T10:47:06.639Z,11.15
2022-12-29T10:49:39.994Z,10.70
2022-12-29T10:52:09.379Z,10.77
2022-12-29T10:54:45.757Z,13.88
2022-12-29T10:57:17.734Z,17.00
2022-12-29T10:59:46.368Z,9.43
2022-12-29T11:02:25.715Z,10.82
2022-12-29T11:05:00.321Z,10.00
2022-12-29T11:07:31.073Z,11.20
2022-12-29T11:10:18.054Z,17.73
2022-12-29T11:12:57.830Z,11.07
2022-12-29T11:15:26.305Z,16.00
2022-12-29T11:18:00.709Z,14.52
2022-12-29T11:20:38.406Z,12.85
2022-12-29T11:23:07.619Z,12.32
2022-12-29T11:25:35.858Z,15.77
2022-12-29T11:28:07.783Z,25.75
2022-12-29T11:30:36.201Z,11.95
2022-12-29T11:33:08.141Z,18.25
2022-12-29T11:35:39.079Z,12.60
2022-12-29T11:38:19.053Z,18.88
2022-12-29T11:40:52.162Z,12.07
2022-12-29T11:43:24.431Z,13.63
2022-12-29T11:45:54.526Z,7.85
2022-12-29T11:48:26.936Z,15.80
2022-12-29T11:50:57.371Z,12.10
2022-12-29T11:53:26.861Z,16.77
2022-12-29T11:55:58.968Z,11.32
2022-12-29T11:58:33.376Z,11.45
2022-12-29T12:01:15.765Z,9.18
2022-12-29T12:03:49.760Z,6.03
2022-12-29T12:06:27.340Z,14.32
2022-12-29T12:08:57.094Z,13.73
2022-12-29T12:11:26.769Z,17.00
2022-12-29T12:14:01.305Z,16.73
2022-12-29T12:16:42.876Z,7.93
2022-12-29T12:19:16.684Z,8.38
2022-12-29T12:21:50.474Z,7.82
2022-12-29T12:24:27.591Z,13.00
2022-12-29T12:26:58.762Z,7.03
2022-12-29T12:29:28.933Z,8.75
2022-12-29T12:32:02.069Z,4.43
2022-12-29T12:34:38.211Z,10.25
2022-12-29T12:37:14.818Z,10.32
2022-12-29T12:39:49.031Z,5.15
2022-12-29T12:42:22.792Z,13.85
2022-12-29T12:45:00.061Z,9.48
2022-12-29T12:47:40.665Z,7.93
2022-12-29T12:50:22.087Z,6.13
2022-12-29T12:53:11.029Z,10.38
2022-12-29T12:55:56.725Z,13.00
2022-12-29T12:58:30.822Z,7.07
2022-12-29T13:01:06.343Z,9.35
2022-12-29T13:03:43.532Z,8.77
2022-12-29T13:06:23.321Z,9.98
2022-12-29T13:09:06.419Z,8.18
2022-12-29T13:11:46.351Z,9.85
2022-12-29T13:14:22.533Z,7.63
2022-12-29T13:16:54.821Z,5.88
2022-12-29T13:19:33.544Z,10.32
2022-12-29T13:22:07.234Z,12.40
2022-12-29T13:24:39.145Z,8.20
2022-12-29T13:27:14.606Z,22.00
2022-12-29T13:29:45.456Z,9.57
2022-12-29T13:32:24.172Z,7.82
2022-12-29T13:34:56.502Z,7.40
2022-12-29T13:37:27.880Z,8.75
2022-12-29T13:40:00.446Z,9.80
2022-12-29T13:42:33.031Z,7.38
2022-12-29T13:45:05.497Z,7.68
2022-12-29T13:47:35.154Z,6.68
2022-12-29T13:50:12.692Z,7.28
2022-12-29T13:52:44.619Z,3.78
2022-12-29T13:55:22.174Z,3.33
2022-12-29T13:57:55.103Z,4.15
2022-12-29T14:00:26.784Z,3.15
2022-12-29T14:03:16.298Z,3.95
2022-12-29T14:05:48.736Z,3.83
2022-12-29T14:08:23.319Z,5.95
2022-12-29T14:10:55.155Z,3.08
2022-12-29T14:13:29.950Z,3.53
2022-12-29T14:15:59.783Z,5.10
2022-12-29T14:18:29.082Z,2.85
2022-12-29T14:20:58.889Z,7.30
2022-12-29T14:23:31.601Z,6.38
2022-12-29T14:26:03.959Z,4.15
2022-12-29T14:28:41.217Z,4.32
2022-12-29T14:31:35.750Z,4.18
2022-12-29T14:34:34.219Z,9.10
2022-12-29T14:37:02.846Z,3.58
2022-12-29T14:39:37.136Z,5.85
2022-12-29T14:42:07.045Z,4.93
2022-12-29T14:44:36.229Z,3.72
2022-12-29T14:47:10.333Z,4.82
2022-12-29T14:49:46.127Z,4.82
2022-12-29T14:52:22.491Z,5.35
2022-12-29T14:54:52.534Z,2.60
2022-12-29T14:57:31.364Z,4.25
2022-12-29T15:00:03.323Z,5.82
2022-12-29T15:02:35.704Z,6.22
2022-12-29T15:05:05.774Z,6.53
2022-12-29T15:07:41.094Z,4.75
2022-12-29T15:10:13.913Z,7.03
2022-12-29T15:12:52.565Z,6.53
2022-12-29T15:15:27.690Z,8.82
2022-12-29T15:17:56.039Z,8.35
2022-12-29T15:20:32.585Z,4.57
2022-12-29T15:23:03.545Z,5.78
2022-12-29T15:25:33.017Z,4.35
2022-12-29T15:28:03.622Z,4.97
2022-12-29T15:30:36.531Z,4.82
2022-12-29T15:33:04.799Z,3.72
2022-12-29T15:35:35.593Z,2.58
2022-12-29T15:38:16.982Z,3.22
2022-12-29T15:40:46.419Z,4.28
2022-12-29T15:43:30.975Z,3.15
2022-12-29T15:46:02.989Z,9.38
2022-12-29T15:48:32.154Z,7.57
2022-12-29T15:51:02.848Z,3.28
2022-12-29T15:53:37.824Z,4.25
2022-12-29T15:56:09.755Z,7.95
2022-12-29T15:58:42.875Z,5.00
2022-12-29T16:01:19.298Z,7.15
2022-12-29T16:03:49.904Z,3.47
2022-12-29T16:06:34.481Z,5.22
2022-12-29T16:09:05.606Z,6.55
2022-12-29T16:11:38.899Z,3.03
2022-12-29T16:14:12.516Z,3.70
2022-12-29T16:16:42.211Z,6.70
2022-12-29T16:19:19.924Z,6.03
2022-12-29T16:21:52.170Z,7.13
2022-12-29T16:24:29.828Z,3.78
2022-12-29T16:27:01.072Z,7.28
2022-12-29T16:29:30.470Z,5.18
2022-12-29T16:32:04.048Z,7.22
2022-12-29T16:34:33.545Z,4.75
2022-12-29T16:37:03.948Z,6.53
2022-12-29T16:39:40.386Z,5.43
2022-12-29T16:42:28.778Z,4.07
2022-12-29T16:45:03.504Z,10.40
2022-12-29T16:47:32.012Z,8.35
2022-12-29T16:50:13.066Z,6.97
2022-12-29T16:52:47.231Z,3.35
2022-12-29T16:55:20.739Z,4.78
2022-12-29T16:57:54.380Z,8.63
2022-12-29T17:00:23.498Z,9.10
2022-12-29T17:02:53.338Z,8.82
2022-12-29T17:05:23.952Z,8.10
2022-12-29T17:08:04.500Z,3.72
2022-12-29T17:10:46.677Z,3.83
2022-12-29T17:13:15.220Z,8.48
2022-12-29T17:15:43.579Z,7.25
2022-12-29T17:18:14.051Z,6.68
2022-12-29T17:20:42.737Z,4.43
2022-12-29T17:23:26.783Z,5.78
2022-12-29T17:25:55.771Z,4.25
2022-12-29T17:28:27.403Z,6.53
2022-12-29T17:30:56.500Z,5.20
2022-12-29T17:33:24.844Z,4.13
2022-12-29T17:35:55.602Z,6.78
2022-12-29T17:38:27.892Z,6.15
2022-12-29T17:40:58.627Z,3.38
2022-12-29T17:43:30.204Z,5.22
2022-12-29T17:46:04.936Z,5.88
2022-12-29T17:48:33.198Z,7.57
2022-12-29T17:51:01.560Z,8.48
2022-12-29T17:53:32.957Z,5.15
2022-12-29T17:56:15.422Z,7.60
2022-12-29T17:58:45.962Z,5.80
2022-12-29T18:01:14.536Z,7.03
2022-12-29T18:03:43.414Z,10.65
2022-12-29T18:06:15.104Z,12.02
2022-12-29T18:08:45.245Z,5.82
2022-12-29T18:11:23.029Z,7.80
2022-12-29T18:13:54.830Z,9.25
2022-12-29T18:16:25.688Z,6.85
2022-12-29T18:18:56.380Z,13.60
2022-12-29T18:21:25.770Z,4.28
2022-12-29T18:23:57.939Z,12.85
2022-12-29T18:26:35.516Z,11.07
2022-12-29T18:29:03.744Z,4.72
2022-12-29T18:31:36.594Z,9.20
2022-12-29T18:34:09.052Z,9.70
2022-12-29T18:36:37.277Z,11.48
2022-12-29T18:39:06.849Z,9.02
2022-12-29T18:41:35.041Z,7.75
2022-12-29T18:44:03.251Z,7.03
2022-12-29T18:46:31.544Z,7.45
2022-12-29T18:49:02.165Z,10.48
2022-12-29T18:51:32.986Z,16.70
2022-12-29T18:54:03.014Z,11.05
2022-12-29T18:56:32.662Z,12.65
2022-12-29T18:59:00.944Z,9.23
2022-12-29T19:01:30.882Z,9.82
2022-12-29T19:03:59.211Z,11.60
2022-12-29T19:06:29.965Z,8.23
2022-12-29T19:08:58.284Z,7.07
2022-12-29T19:11:26.640Z,9.02
2022-12-29T19:13:56.225Z,9.48
2022-12-29T19:16:25.005Z,8.15
2022-12-29T19:19:08.331Z,15.88
2022-12-29T19:21:41.956Z,12.43
2022-12-29T19:24:10.280Z,12.02
2022-12-29T19:26:42.062Z,13.70
2022-12-29T19:29:15.454Z,10.55
2022-12-29T19:31:45.480Z,4.63
2022-12-29T19:34:15.523Z,8.80
2022-12-29T19:36:51.209Z,9.75
2022-12-29T19:39:20.867Z,9.20
2022-12-29T19:41:49.056Z,14.98
2022-12-29T19:44:20.715Z,10.93
2022-12-29T19:46:49.840Z,17.48
2022-12-29T19:49:21.257Z,9.45
2022-12-29T19:51:49.629Z,13.05
2022-12-29T19:54:21.699Z,8.88
2022-12-29T19:56:56.922Z,9.25
2022-12-29T19:59:26.789Z,11.98
2022-12-29T20:04:41.124Z,7.93
2022-12-29T20:07:17.272Z,11.25
2022-12-29T20:09:48.840Z,10.80
2022-12-29T20:12:17.682Z,13.93
2022-12-29T20:14:49.819Z,7.75
2022-12-29T20:17:27.372Z,9.02
2022-12-29T20:20:07.798Z,7.20
2022-12-29T20:22:36.254Z,9.10
2022-12-29T20:25:42.973Z,10.40
2022-12-29T20:27:54.199Z,8.30
2022-12-29T20:30:24.958Z,19.20
2022-12-29T20:32:53.335Z,7.70
2022-12-29T20:35:24.078Z,14.43
2022-12-29T20:37:59.360Z,10.40
2022-12-29T20:40:29.623Z,16.30
2022-12-29T20:43:00.440Z,13.98
2022-12-29T20:45:32.827Z,9.25
2022-12-29T20:48:01.084Z,9.90
2022-12-29T20:50:38.921Z,7.70
2022-12-29T20:53:07.513Z,9.73
2022-12-29T20:55:41.194Z,12.70
2022-12-29T20:58:25.816Z,16.83
2022-12-29T21:00:55.850Z,7.22
2022-12-29T21:03:24.723Z,8.73
2022-12-29T21:05:55.178Z,8.30
2022-12-29T21:08:28.197Z,9.75
2022-12-29T21:11:00.505Z,10.25
2022-12-29T21:13:38.989Z,4.95
2022-12-29T21:16:10.237Z,16.77
2022-12-29T21:18:38.652Z,11.32
2022-12-29T21:21:08.097Z,10.82
2022-12-29T21:23:41.591Z,7.20
2022-12-29T21:26:12.415Z,7.50
2022-12-29T21:28:44.648Z,10.90
2022-12-29T21:31:21.436Z,7.57
2022-12-29T21:33:55.177Z,10.70
2022-12-29T21:36:23.564Z,13.18
2022-12-29T21:38:54.557Z,7.55
2022-12-29T21:41:26.067Z,10.40
2022-12-29T21:44:14.897Z,9.88
2022-12-29T21:46:51.642Z,8.48
2022-12-29T21:49:27.858Z,10.07
2022-12-29T21:51:57.347Z,13.85
2022-12-29T21:54:46.969Z,11.40
2022-12-29T21:57:40.995Z,8.80
2022-12-29T22:00:29.849Z,15.20
2022-12-29T22:03:23.386Z,6.30
2022-12-29T22:06:10.263Z,5.80
2022-12-29T22:08:58.736Z,9.80
2022-12-29T22:11:47.073Z,7.43
2022-12-29T22:14:22.467Z,8.68
2022-12-29T22:16:50.728Z,8.73
2022-12-29T22:19:20.470Z,5.10
2022-12-29T22:21:51.008Z,10.85
2022-12-29T22:24:24.421Z,8.73
2022-12-29T22:26:52.700Z,9.35
2022-12-29T22:29:23.136Z,6.60
2022-12-29T22:31:53.782Z,7.47
2022-12-29T22:34:23.400Z,7.03
2022-12-29T22:36:53.837Z,9.02
2022-12-29T22:39:28.844Z,9.15
2022-12-29T22:41:59.900Z,11.27
2022-12-29T22:44:28.088Z,8.52
2022-12-29T22:46:56.425Z,6.80
2022-12-29T22:49:26.209Z,5.10
2022-12-29T22:51:54.463Z,7.45
2022-12-29T22:54:22.937Z,6.78
2022-12-29T22:56:51.251Z,12.82
2022-12-29T22:59:19.653Z,6.15
2022-12-29T23:01:48.095Z,8.95
2022-12-29T23:07:09.145Z,12.05
2022-12-29T23:09:37.588Z,8.38
2022-12-29T23:12:06.171Z,8.68
2022-12-29T23:14:39.213Z,6.60
2022-12-29T23:17:07.395Z,8.80
2022-12-29T23:19:35.655Z,7.55
2022-12-29T23:22:03.907Z,10.23
2022-12-29T23:24:33.455Z,16.63
2022-12-29T23:27:04.143Z,16.85
2022-12-29T23:29:32.363Z,11.68
2022-12-29T23:32:00.680Z,8.85
2022-12-29T23:34:29.053Z,9.18
2022-12-29T23:37:02.008Z,6.38
2022-12-29T23:39:32.353Z,5.43
2022-12-29T23:42:06.439Z,7.43
2022-12-29T23:44:34.935Z,12.07
2022-12-29T23:47:05.508Z,8.45
2022-12-29T23:49:33.727Z,6.15
2022-12-29T23:52:02.122Z,5.55
2022-12-29T23:54:30.355Z,6.22
2022-12-29T23:56:58.526Z,5.85
2022-12-29T23:59:28.171Z,8.77
